createdAt,value
2022-12-16T00:01:25.545Z,7.73
2022-12-16T00:03:55.447Z,8.33
2022-12-16T00:06:25.147Z,7.03
2022-12-16T00:08:53.831Z,8.33
2022-12-16T00:11:25.048Z,8.20
2022-12-16T00:13:53.756Z,6.07
2022-12-16T00:16:23.949Z,8.50
2022-12-16T00:18:52.614Z,8.33
2022-12-16T00:21:21.616Z,7.27
2022-12-16T00:23:50.286Z,6.23
2022-12-16T00:26:18.899Z,6.43
2022-12-16T00:28:48.910Z,8.63
2022-12-16T00:31:17.562Z,12.03
2022-12-16T00:33:46.192Z,11.33
2022-12-16T00:36:16.129Z,7.10
2022-12-16T00:38:44.704Z,8.40
2022-12-16T00:41:13.253Z,13.27
2022-12-16T00:43:41.840Z,9.57
2022-12-16T00:46:11.915Z,11.00
2022-12-16T00:48:40.543Z,11.30
2022-12-16T00:51:09.287Z,6.83
2022-12-16T00:53:38.331Z,8.57
2022-12-16T00:56:07.921Z,13.13
2022-12-16T00:58:37.235Z,7.80
2022-12-16T01:01:05.971Z,8.87
2022-12-16T01:03:36.596Z,12.77
2022-12-16T01:06:09.253Z,8.87
2022-12-16T01:08:37.802Z,7.67
2022-12-16T01:11:06.526Z,9.70
2022-12-16T01:13:35.735Z,9.77
2022-12-16T01:16:04.664Z,11.37
2022-12-16T01:18:33.288Z,8.83
2022-12-16T01:21:05.810Z,9.40
2022-12-16T01:23:35.254Z,10.97
2022-12-16T01:26:03.971Z,13.23
2022-12-16T01:28:32.608Z,6.97
2022-12-16T01:31:02.681Z,7.87
2022-12-16T01:33:32.024Z,8.23
2022-12-16T01:36:01.697Z,10.03
2022-12-16T01:38:32.056Z,12.77
2022-12-16T01:41:00.619Z,8.60
2022-12-16T01:43:30.150Z,8.50
2022-12-16T01:46:00.736Z,7.57
2022-12-16T01:48:35.717Z,5.90
2022-12-16T01:51:07.531Z,11.00
2022-12-16T01:53:40.622Z,9.40
2022-12-16T01:56:09.730Z,8.10
2022-12-16T01:58:39.509Z,7.90
2022-12-16T02:01:09.166Z,9.33
2022-12-16T02:03:38.608Z,7.67
2022-12-16T02:06:08.355Z,7.00
2022-12-16T02:08:38.476Z,7.30
2022-12-16T02:11:10.768Z,6.60
2022-12-16T02:13:47.788Z,8.17
2022-12-16T02:16:18.795Z,8.73
2022-12-16T02:18:51.459Z,8.70
2022-12-16T02:21:34.782Z,7.77
2022-12-16T02:24:11.463Z,9.17
2022-12-16T02:26:54.007Z,6.77
2022-12-16T02:29:39.826Z,8.83
2022-12-16T02:32:12.279Z,7.23
2022-12-16T02:34:44.235Z,6.70
2022-12-16T02:37:16.423Z,10.20
2022-12-16T02:39:48.320Z,11.17
2022-12-16T02:42:18.431Z,8.97
2022-12-16T02:44:53.171Z,11.83
2022-12-16T02:47:23.180Z,10.30
2022-12-16T02:49:53.233Z,10.10
2022-12-16T02:52:22.881Z,9.30
2022-12-16T02:54:52.443Z,10.13
2022-12-16T02:57:27.240Z,15.63
2022-12-16T02:59:59.255Z,14.75
2022-12-16T03:02:32.603Z,11.25
2022-12-16T03:05:03.760Z,5.60
2022-12-16T03:07:36.494Z,9.73
2022-12-16T03:10:06.756Z,10.37
2022-12-16T03:12:35.796Z,11.53
2022-12-16T03:15:04.681Z,8.88
2022-12-16T03:17:34.691Z,8.20
2022-12-16T03:20:07.419Z,9.88
2022-12-16T03:22:38.076Z,7.00
2022-12-16T03:25:07.678Z,7.17
2022-12-16T03:27:37.718Z,7.03
2022-12-16T03:30:08.946Z,6.03
2022-12-16T03:32:40.418Z,8.05
2022-12-16T03:35:14.746Z,9.23
2022-12-16T03:37:44.927Z,6.07
2022-12-16T03:40:14.672Z,8.80
2022-12-16T03:42:44.302Z,7.47
2022-12-16T03:45:16.850Z,7.43
2022-12-16T03:47:50.567Z,6.78
2022-12-16T03:50:19.826Z,6.50
2022-12-16T03:52:48.354Z,7.10
2022-12-16T03:55:17.119Z,8.00
2022-12-16T03:57:45.853Z,6.77
2022-12-16T04:00:15.135Z,6.23
2022-12-16T04:02:43.881Z,6.57
2022-12-16T04:05:14.173Z,6.27
2022-12-16T04:07:42.844Z,5.47
2022-12-16T04:10:11.814Z,6.10
2022-12-16T04:12:57.921Z,6.87
2022-12-16T04:15:44.177Z,6.10
2022-12-16T04:18:33.443Z,4.50
2022-12-16T04:21:21.015Z,6.75
2022-12-16T04:24:08.739Z,5.87
2022-12-16T04:26:57.926Z,6.03
2022-12-16T04:29:26.531Z,9.73
2022-12-16T04:31:55.139Z,6.22
2022-12-16T04:34:26.165Z,7.72
2022-12-16T04:37:14.395Z,7.20
2022-12-16T04:40:00.588Z,6.70
2022-12-16T04:42:47.208Z,6.63
2022-12-16T04:45:33.607Z,6.83
2022-12-16T04:48:19.874Z,7.22
2022-12-16T04:51:05.919Z,6.97
2022-12-16T04:53:53.675Z,7.25
2022-12-16T04:56:39.801Z,7.77
2022-12-16T04:59:26.190Z,6.13
2022-12-16T05:02:12.763Z,8.50
2022-12-16T05:04:59.143Z,8.87
2022-12-16T05:07:45.191Z,6.93
2022-12-16T05:10:32.997Z,6.05
2022-12-16T05:13:18.999Z,7.40
2022-12-16T05:16:05.239Z,6.30
2022-12-16T05:18:51.328Z,4.65
2022-12-16T05:21:37.363Z,6.37
2022-12-16T05:24:23.888Z,4.55
2022-12-16T05:27:11.578Z,5.57
2022-12-16T05:29:57.631Z,5.63
2022-12-16T05:32:43.806Z,4.83
2022-12-16T05:35:29.952Z,5.47
2022-12-16T05:38:16.035Z,6.32
2022-12-16T05:41:02.052Z,4.93
2022-12-16T05:43:49.855Z,4.38
2022-12-16T05:46:36.082Z,5.20
2022-12-16T05:49:22.507Z,6.30
2022-12-16T05:52:11.252Z,5.97
2022-12-16T05:54:57.410Z,6.72
2022-12-16T05:57:43.813Z,7.32
2022-12-16T06:00:32.330Z,5.97
2022-12-16T06:03:18.838Z,7.50
2022-12-16T06:06:01.354Z,5.67
2022-12-16T06:08:47.848Z,10.57
2022-12-16T06:11:33.921Z,7.43
2022-12-16T06:14:19.984Z,7.68
2022-12-16T06:17:07.715Z,5.67
2022-12-16T06:19:53.951Z,5.28
2022-12-16T06:22:40.399Z,6.33
2022-12-16T06:25:26.742Z,7.25
2022-12-16T06:28:13.141Z,8.55
2022-12-16T06:30:59.252Z,4.93
2022-12-16T06:33:51.883Z,5.63
2022-12-16T06:36:40.839Z,4.97
2022-12-16T06:39:27.206Z,5.72
2022-12-16T06:42:13.331Z,5.03
2022-12-16T06:44:58.894Z,5.33
2022-12-16T06:47:45.006Z,5.65
2022-12-16T06:50:32.711Z,5.43
2022-12-16T06:53:18.747Z,4.90
2022-12-16T06:56:05.098Z,6.95
2022-12-16T06:58:51.167Z,5.43
2022-12-16T07:01:37.289Z,6.50
2022-12-16T07:04:23.423Z,4.85
2022-12-16T07:07:11.056Z,6.95
2022-12-16T07:09:57.386Z,8.37
2022-12-16T07:12:43.477Z,5.20
2022-12-16T07:15:30.256Z,6.40
2022-12-16T07:18:16.330Z,4.90
2022-12-16T07:21:02.507Z,5.23
2022-12-16T07:23:50.128Z,4.97
2022-12-16T07:26:36.875Z,5.25
2022-12-16T07:29:28.170Z,5.18
2022-12-16T07:32:14.681Z,5.45
2022-12-16T07:35:00.779Z,4.77
2022-12-16T07:37:47.135Z,6.13
2022-12-16T07:40:34.884Z,12.33
2022-12-16T07:43:21.355Z,5.40
2022-12-16T07:46:07.526Z,10.20
2022-12-16T07:48:54.071Z,8.80
2022-12-16T07:51:42.259Z,13.67
2022-12-16T07:54:28.171Z,10.65
2022-12-16T07:57:15.852Z,6.37
2022-12-16T08:00:02.248Z,6.53
2022-12-16T08:02:58.054Z,6.53
2022-12-16T08:05:44.341Z,7.40
2022-12-16T08:08:30.899Z,7.68
2022-12-16T08:11:17.039Z,8.73
2022-12-16T08:14:04.803Z,11.50
2022-12-16T08:16:51.276Z,12.55
2022-12-16T08:19:37.222Z,16.95
2022-12-16T08:22:23.417Z,9.25
2022-12-16T08:25:20.946Z,9.40
2022-12-16T08:28:12.791Z,12.57
2022-12-16T08:31:00.653Z,10.95
2022-12-16T08:33:47.010Z,7.57
2022-12-16T08:36:33.075Z,7.15
2022-12-16T08:39:19.140Z,7.28
2022-12-16T08:42:05.203Z,6.55
2022-12-16T08:44:51.307Z,9.20
2022-12-16T08:47:39.214Z,11.40
2022-12-16T08:50:25.843Z,12.07
2022-12-16T08:53:12.222Z,6.50
2022-12-16T08:55:58.427Z,6.47
2022-12-16T08:58:44.418Z,8.52
2022-12-16T09:01:42.318Z,5.60
2022-12-16T09:04:29.720Z,6.25
2022-12-16T09:07:16.127Z,4.60
2022-12-16T09:10:02.296Z,7.63
2022-12-16T09:12:48.357Z,7.18
2022-12-16T09:15:34.863Z,7.63
2022-12-16T09:18:21.063Z,8.23
2022-12-16T09:21:10.416Z,9.23
2022-12-16T09:23:56.513Z,9.95
2022-12-16T09:26:42.912Z,13.30
2022-12-16T09:29:28.849Z,25.70
2022-12-16T09:32:14.945Z,35.45
2022-12-16T09:35:13.823Z,14.38
2022-12-16T09:38:05.791Z,11.88
2022-12-16T09:40:52.124Z,14.63
2022-12-16T09:43:49.390Z,27.83
2022-12-16T09:46:38.037Z,17.15
2022-12-16T09:49:29.239Z,13.02
2022-12-16T09:52:18.519Z,12.07
2022-12-16T09:55:07.013Z,11.00
2022-12-16T09:57:55.525Z,10.10
2022-12-16T10:00:42.831Z,12.23
2022-12-16T10:03:34.881Z,8.43
2022-12-16T10:06:26.038Z,14.32
2022-12-16T10:09:16.126Z,11.45
2022-12-16T10:12:06.135Z,16.83
2022-12-16T10:14:56.671Z,11.38
2022-12-16T10:17:44.289Z,11.43
2022-12-16T10:20:35.345Z,12.05
2022-12-16T10:23:24.249Z,12.60
2022-12-16T10:26:12.525Z,13.10
2022-12-16T10:29:04.701Z,13.13
2022-12-16T10:31:51.368Z,10.00
2022-12-16T10:34:38.780Z,9.52
2022-12-16T10:37:24.864Z,9.05
2022-12-16T10:40:13.311Z,6.95
2022-12-16T10:43:04.842Z,7.22
2022-12-16T10:45:54.226Z,8.07
2022-12-16T10:48:51.132Z,12.13
2022-12-16T10:51:42.640Z,9.77
2022-12-16T10:54:36.503Z,8.50
2022-12-16T10:57:25.022Z,9.77
2022-12-16T11:00:11.196Z,12.20
2022-12-16T11:02:59.035Z,9.65
2022-12-16T11:05:55.022Z,7.93
2022-12-16T11:08:43.670Z,10.25
2022-12-16T11:11:40.609Z,8.75
2022-12-16T11:14:37.958Z,8.48
2022-12-16T11:17:32.195Z,6.93
2022-12-16T11:20:33.595Z,6.10
2022-12-16T11:23:43.774Z,8.55
2022-12-16T11:26:36.621Z,7.25
2022-12-16T11:29:24.525Z,53.78
2022-12-16T11:32:13.850Z,62.08
2022-12-16T11:35:00.275Z,16.67
2022-12-16T11:37:48.332Z,7.43
2022-12-16T11:40:35.502Z,5.32
2022-12-16T11:43:23.031Z,6.55
2022-12-16T11:46:10.645Z,5.43
2022-12-16T11:49:00.297Z,6.03
2022-12-16T11:51:47.321Z,5.55
2022-12-16T11:54:37.272Z,5.65
2022-12-16T11:57:25.373Z,7.05
2022-12-16T12:00:13.268Z,6.43
2022-12-16T12:03:02.447Z,6.13
2022-12-16T12:05:52.111Z,6.27
2022-12-16T12:08:42.509Z,6.47
2022-12-16T12:11:34.064Z,7.57
2022-12-16T12:14:24.658Z,6.90
2022-12-16T12:17:15.906Z,6.07
2022-12-16T12:20:07.438Z,4.43
2022-12-16T12:22:54.844Z,6.07
2022-12-16T12:25:45.081Z,6.50
2022-12-16T12:28:37.946Z,5.43
2022-12-16T12:31:29.103Z,9.40
2022-12-16T12:34:20.471Z,7.28
2022-12-16T12:37:10.951Z,8.73
2022-12-16T12:40:01.891Z,11.27
2022-12-16T12:42:51.838Z,6.57
2022-12-16T12:45:57.118Z,9.27
2022-12-16T12:48:44.655Z,15.38
2022-12-16T12:51:35.612Z,11.70
2022-12-16T12:54:32.906Z,6.00
2022-12-16T12:57:21.520Z,5.88
2022-12-16T13:00:12.812Z,5.50
2022-12-16T13:03:05.043Z,5.72
2022-12-16T13:05:53.449Z,5.83
2022-12-16T13:09:12.659Z,6.68
2022-12-16T13:11:59.335Z,5.57
2022-12-16T13:15:04.038Z,7.65
2022-12-16T13:18:21.803Z,5.57
2022-12-16T13:21:09.746Z,8.60
2022-12-16T13:23:56.498Z,6.77
2022-12-16T13:26:43.483Z,6.85
2022-12-16T13:29:37.077Z,5.73
2022-12-16T13:32:24.419Z,7.88
2022-12-16T13:35:30.121Z,4.87
2022-12-16T13:38:18.236Z,13.10
2022-12-16T13:41:08.119Z,6.28
2022-12-16T13:44:10.820Z,8.53
2022-12-16T13:47:01.909Z,6.05
2022-12-16T13:50:05.695Z,5.60
2022-12-16T13:52:57.084Z,6.00
2022-12-16T13:55:46.532Z,6.35
2022-12-16T13:58:36.859Z,5.43
2022-12-16T14:01:25.547Z,5.25
2022-12-16T14:04:12.050Z,6.50
2022-12-16T14:07:01.015Z,5.72
2022-12-16T14:09:52.217Z,5.53
2022-12-16T14:12:57.186Z,8.85
2022-12-16T14:15:46.431Z,6.38
2022-12-16T14:18:43.300Z,5.25
2022-12-16T14:21:32.304Z,6.00
2022-12-16T14:24:20.466Z,5.60
2022-12-16T14:27:06.780Z,7.65
2022-12-16T14:29:53.092Z,5.40
2022-12-16T14:32:47.986Z,10.38
2022-12-16T14:35:35.228Z,7.05
2022-12-16T14:38:41.368Z,6.75
2022-12-16T14:41:31.415Z,9.65
2022-12-16T14:44:17.435Z,5.75
2022-12-16T14:47:08.491Z,12.10
2022-12-16T14:49:56.082Z,7.90
2022-12-16T14:52:43.039Z,8.80
2022-12-16T14:55:34.566Z,6.45
2022-12-16T14:58:21.979Z,11.87
2022-12-16T15:01:17.575Z,8.63
2022-12-16T15:04:04.943Z,10.93
2022-12-16T15:06:54.405Z,8.45
2022-12-16T15:09:44.034Z,11.10
2022-12-16T15:12:32.009Z,13.23
2022-12-16T15:15:19.012Z,17.13
2022-12-16T15:18:08.556Z,11.25
2022-12-16T15:20:56.599Z,12.33
2022-12-16T15:23:45.588Z,11.30
2022-12-16T15:26:36.736Z,14.37
2022-12-16T15:29:22.831Z,11.53
2022-12-16T15:32:12.414Z,14.13
2022-12-16T15:35:05.769Z,9.98
2022-12-16T15:38:00.636Z,10.55
2022-12-16T15:41:00.035Z,10.93
2022-12-16T15:43:47.855Z,10.50
2022-12-16T15:46:38.158Z,11.90
2022-12-16T15:49:25.085Z,11.93
2022-12-16T15:52:11.831Z,11.70
2022-12-16T15:55:09.023Z,10.37
2022-12-16T15:57:57.018Z,9.37
2022-12-16T16:00:45.080Z,12.88
2022-12-16T16:03:39.321Z,13.07
2022-12-16T16:06:33.780Z,16.55
2022-12-16T16:09:31.460Z,17.73
2022-12-16T16:12:17.814Z,16.52
2022-12-16T16:15:05.252Z,20.23
2022-12-16T16:17:51.811Z,14.97
2022-12-16T16:20:38.258Z,17.20
2022-12-16T16:23:24.670Z,13.68
2022-12-16T16:26:10.796Z,14.20
2022-12-16T16:28:57.196Z,12.15
2022-12-16T16:31:45.243Z,13.77
2022-12-16T16:34:32.258Z,15.80
2022-12-16T16:37:18.321Z,16.13
2022-12-16T16:40:04.480Z,14.73
2022-12-16T16:42:50.658Z,10.48
2022-12-16T16:45:36.564Z,15.30
2022-12-16T16:48:28.323Z,14.02
2022-12-16T16:51:15.413Z,13.37
2022-12-16T16:53:58.136Z,13.20
2022-12-16T16:56:44.436Z,14.27
2022-12-16T16:59:31.895Z,21.08
2022-12-16T17:02:18.392Z,13.97
2022-12-16T17:05:06.275Z,14.70
2022-12-16T17:08:03.814Z,14.97
2022-12-16T17:10:50.002Z,15.82
2022-12-16T17:13:36.483Z,12.63
2022-12-16T17:16:22.783Z,12.88
2022-12-16T17:19:09.071Z,16.30
2022-12-16T17:21:56.691Z,18.98
2022-12-16T17:24:47.597Z,18.63
2022-12-16T17:27:35.790Z,22.67
2022-12-16T17:30:22.313Z,20.02
2022-12-16T17:33:08.634Z,28.02
2022-12-16T17:35:54.904Z,25.63
2022-12-16T17:38:42.344Z,20.23
2022-12-16T17:41:28.543Z,16.17
2022-12-16T17:44:14.935Z,18.85
2022-12-16T17:47:01.531Z,17.67
2022-12-16T17:49:48.065Z,17.73
2022-12-16T17:52:34.388Z,23.05
2022-12-16T17:55:22.047Z,34.27
2022-12-16T17:58:08.172Z,23.92
2022-12-16T18:00:54.894Z,17.90
2022-12-16T18:03:41.510Z,15.57
2022-12-16T18:06:27.438Z,12.10
2022-12-16T18:09:13.633Z,14.68
2022-12-16T18:12:01.352Z,16.75
2022-12-16T18:14:47.728Z,18.10
2022-12-16T18:17:34.015Z,10.52
2022-12-16T18:20:20.702Z,20.60
2022-12-16T18:23:06.939Z,14.52
2022-12-16T18:25:53.230Z,18.15
2022-12-16T18:28:41.255Z,23.55
2022-12-16T18:31:27.795Z,17.92
2022-12-16T18:34:13.934Z,18.25
2022-12-16T18:37:00.135Z,21.33
2022-12-16T18:39:46.664Z,17.23
2022-12-16T18:42:32.739Z,16.97
2022-12-16T18:45:20.139Z,21.40
2022-12-16T18:48:06.585Z,18.20
2022-12-16T18:50:52.870Z,19.20
2022-12-16T18:53:42.772Z,17.90
2022-12-16T18:56:29.278Z,21.10
2022-12-16T18:59:15.704Z,20.33
2022-12-16T19:02:03.485Z,18.63
2022-12-16T19:04:50.024Z,12.65
2022-12-16T19:07:36.055Z,20.83
2022-12-16T19:10:22.426Z,18.88
2022-12-16T19:13:08.898Z,19.35
2022-12-16T19:15:54.971Z,18.23
2022-12-16T19:18:51.082Z,16.53
2022-12-16T19:21:37.691Z,18.43
2022-12-16T19:24:24.100Z,18.52
2022-12-16T19:30:16.731Z,18.53
2022-12-16T19:33:06.678Z,16.52
2022-12-16T19:35:54.175Z,17.33
2022-12-16T19:38:40.701Z,15.90
2022-12-16T19:41:33.285Z,18.00
2022-12-16T19:44:19.483Z,15.03
2022-12-16T19:47:05.771Z,18.20
2022-12-16T19:49:52.104Z,16.20
2022-12-16T19:52:39.665Z,18.17
2022-12-16T19:55:26.831Z,14.15
2022-12-16T19:58:13.290Z,11.70
2022-12-16T20:00:59.416Z,11.43
2022-12-16T20:03:46.384Z,12.13
2022-12-16T20:06:32.998Z,10.80
2022-12-16T20:09:20.746Z,14.83
2022-12-16T20:12:07.176Z,14.60
2022-12-16T20:14:53.663Z,14.57
2022-12-16T20:17:39.944Z,12.05
2022-12-16T20:20:26.370Z,13.77
2022-12-16T20:23:14.658Z,15.27
2022-12-16T20:26:02.603Z,13.02
2022-12-16T20:28:49.015Z,15.50
2022-12-16T20:31:35.482Z,18.97
2022-12-16T20:34:21.940Z,16.20
2022-12-16T20:37:08.086Z,14.40
2022-12-16T20:39:56.681Z,15.97
2022-12-16T20:43:02.012Z,13.02
2022-12-16T20:45:48.322Z,15.07
2022-12-16T20:48:34.739Z,15.17
2022-12-16T20:51:26.774Z,16.13
2022-12-16T20:54:12.624Z,15.83
2022-12-16T20:56:58.885Z,12.50
2022-12-16T20:59:46.356Z,15.37
2022-12-16T21:05:39.231Z,11.50
2022-12-16T21:08:25.675Z,11.53
2022-12-16T21:11:14.971Z,12.17
2022-12-16T21:14:01.239Z,12.57
2022-12-16T21:16:49.069Z,9.50
2022-12-16T21:19:35.330Z,18.43
2022-12-16T21:22:21.616Z,11.23
2022-12-16T21:25:07.788Z,13.80
2022-12-16T21:27:54.860Z,11.10
2022-12-16T21:30:47.220Z,10.70
2022-12-16T21:33:37.175Z,11.33
2022-12-16T21:36:23.947Z,10.47
2022-12-16T21:39:10.326Z,16.83
2022-12-16T21:41:56.535Z,9.33
2022-12-16T21:44:56.291Z,12.63
2022-12-16T21:47:42.805Z,11.13
2022-12-16T21:50:30.377Z,12.60
2022-12-16T21:53:17.004Z,14.97
2022-12-16T21:56:03.372Z,7.73
2022-12-16T21:58:49.545Z,9.30
2022-12-16T22:01:36.850Z,8.05
2022-12-16T22:04:23.191Z,9.50
2022-12-16T22:07:10.971Z,10.57
2022-12-16T22:09:57.689Z,16.60
2022-12-16T22:12:43.892Z,8.37
2022-12-16T22:15:30.352Z,11.40
2022-12-16T22:18:17.014Z,8.83
2022-12-16T22:21:05.587Z,8.23
2022-12-16T22:23:53.279Z,6.33
2022-12-16T22:26:42.553Z,6.60
2022-12-16T22:29:29.021Z,10.60
2022-12-16T22:32:15.206Z,8.90
2022-12-16T22:35:03.264Z,8.87
2022-12-16T22:36:21.781Z,9.50
2022-12-16T22:37:50.546Z,8.73
2022-12-16T22:40:39.665Z,11.43
2022-12-16T22:43:25.737Z,12.07
2022-12-16T22:46:17.273Z,10.63
2022-12-16T22:49:05.476Z,8.13
2022-12-16T22:51:52.117Z,9.80
2022-12-16T22:54:38.479Z,23.90
2022-12-16T22:57:25.993Z,22.40
2022-12-16T23:00:12.583Z,8.20
2022-12-16T23:02:58.912Z,8.93
2022-12-16T23:05:45.526Z,12.73
2022-12-16T23:08:31.931Z,6.67
2022-12-16T23:11:18.767Z,5.43
2022-12-16T23:14:06.683Z,7.47
2022-12-16T23:19:59.679Z,8.37
2022-12-16T23:22:45.966Z,9.40
2022-12-16T23:25:50.946Z,5.87
2022-12-16T23:28:37.390Z,4.77
2022-12-16T23:31:24.929Z,4.40
2022-12-16T23:32:29.673Z,14.83
2022-12-16T23:34:11.420Z,4.70
2022-12-16T23:36:58.025Z,5.47
2022-12-16T23:39:44.319Z,5.20
2022-12-16T23:42:30.511Z,6.20
2022-12-16T23:45:16.055Z,5.10
2022-12-16T23:48:12.039Z,4.80
2022-12-16T23:51:12.662Z,5.97
2022-12-16T23:53:58.448Z,6.97
2022-12-16T23:56:45.007Z,5.47
2022-12-16T23:59:30.993Z,3.73
